createdAt,value
2023-11-06T00:00:49.616Z,98581.19
2023-11-06T00:03:16.884Z,98584.47
2023-11-06T00:05:43.599Z,98589.38
2023-11-06T00:08:10.614Z,98605.66
2023-11-06T00:10:37.168Z,98606.59
2023-11-06T00:13:05.240Z,98602.38
2023-11-06T00:15:31.832Z,98609.22
2023-11-06T00:17:58.609Z,98607.47
2023-11-06T00:20:25.149Z,98623.75
2023-11-06T00:22:51.813Z,98626.31
2023-11-06T00:25:18.335Z,98630.56
2023-11-06T00:27:44.938Z,98627.13
2023-11-06T00:30:11.785Z,98636.63
2023-11-06T00:32:38.448Z,98635.75
2023-11-06T00:35:05.474Z,98655.59
2023-11-06T00:37:32.914Z,98658.22
2023-11-06T00:39:59.383Z,98660.81
2023-11-06T00:42:25.915Z,98654.84
2023-11-06T00:44:52.593Z,98647.16
2023-11-06T00:47:19.144Z,98654.13
2023-11-06T00:49:45.678Z,98667.00
2023-11-06T00:52:12.619Z,98679.78
2023-11-06T00:54:39.133Z,98689.22
2023-11-06T00:57:05.645Z,98694.25
2023-11-06T00:59:32.185Z,98697.75
2023-11-06T01:01:58.779Z,98702.13
2023-11-06T01:04:25.308Z,98706.44
2023-11-06T01:06:53.334Z,98704.78
2023-11-06T01:09:21.022Z,98705.72
2023-11-06T01:11:49.507Z,98715.22
2023-11-06T01:14:16.979Z,98719.63
2023-11-06T01:16:44.018Z,98728.06
2023-11-06T01:19:10.607Z,98747.91
2023-11-06T01:21:37.070Z,98756.59
2023-11-06T01:24:03.836Z,98763.47
2023-11-06T01:26:30.300Z,98769.56
2023-11-06T01:28:56.770Z,98782.50
2023-11-06T01:31:23.244Z,98785.25
2023-11-06T01:33:49.799Z,98785.41
2023-11-06T01:36:17.252Z,98796.69
2023-11-06T01:38:43.714Z,98811.38
2023-11-06T01:41:10.249Z,98815.84
2023-11-06T01:43:37.151Z,98824.66
2023-11-06T01:46:03.870Z,98821.28
2023-11-06T01:48:30.762Z,98828.25
2023-11-06T01:50:59.734Z,98827.50
2023-11-06T01:53:29.797Z,98824.22
2023-11-06T01:55:57.238Z,98832.03
2023-11-06T01:58:24.089Z,98835.56
2023-11-06T02:00:52.936Z,98835.63
2023-11-06T02:03:19.642Z,98834.84
2023-11-06T02:05:47.858Z,98829.75
2023-11-06T02:08:17.273Z,98837.47
2023-11-06T02:10:46.167Z,98841.75
2023-11-06T02:13:13.069Z,98837.47
2023-11-06T02:15:41.137Z,98847.78
2023-11-06T02:18:09.913Z,98849.47
2023-11-06T02:20:39.567Z,98845.94
2023-11-06T02:23:06.713Z,98852.78
2023-11-06T02:25:33.221Z,98853.59
2023-11-06T02:27:59.641Z,98858.75
2023-11-06T02:30:26.096Z,98873.25
2023-11-06T02:32:52.753Z,98873.19
2023-11-06T02:35:19.329Z,98880.03
2023-11-06T02:37:45.960Z,98890.41
2023-11-06T02:40:13.694Z,98898.94
2023-11-06T02:42:40.489Z,98893.69
2023-11-06T02:45:07.676Z,98907.47
2023-11-06T02:47:34.381Z,98911.91
2023-11-06T02:50:00.973Z,98915.44
2023-11-06T02:52:27.491Z,98913.84
2023-11-06T02:54:54.119Z,98915.75
2023-11-06T02:57:20.571Z,98910.78
2023-11-06T02:59:47.154Z,98910.09
2023-11-06T03:02:14.048Z,98914.44
2023-11-06T03:04:40.632Z,98913.72
2023-11-06T03:07:07.942Z,98919.81
2023-11-06T03:09:34.497Z,98921.66
2023-11-06T03:12:01.059Z,98916.53
2023-11-06T03:14:27.651Z,98916.59
2023-11-06T03:16:54.288Z,98920.94
2023-11-06T03:19:20.807Z,98912.41
2023-11-06T03:21:47.352Z,98915.78
2023-11-06T03:24:14.218Z,98902.00
2023-11-06T03:26:40.929Z,98899.44
2023-11-06T03:29:07.553Z,98896.78
2023-11-06T03:31:34.329Z,98901.13
2023-11-06T03:34:00.909Z,98914.03
2023-11-06T03:36:27.552Z,98908.06
2023-11-06T03:38:54.774Z,98917.56
2023-11-06T03:41:21.395Z,98921.06
2023-11-06T03:43:53.046Z,98919.31
2023-11-06T03:46:21.236Z,98926.25
2023-11-06T03:48:47.823Z,98931.44
2023-11-06T03:51:14.891Z,98938.38
2023-11-06T03:53:41.723Z,98947.00
2023-11-06T03:56:09.190Z,98949.59
2023-11-06T03:58:35.717Z,98935.81
2023-11-06T04:01:02.204Z,98949.53
2023-11-06T04:03:28.727Z,98946.06
2023-11-06T04:05:55.446Z,98946.94
2023-11-06T04:08:22.435Z,98954.75
2023-11-06T04:10:51.582Z,98946.19
2023-11-06T04:13:18.292Z,98946.19
2023-11-06T04:15:45.919Z,98957.41
2023-11-06T04:18:12.570Z,98955.75
2023-11-06T04:20:43.044Z,98966.88
2023-11-06T04:23:12.584Z,98978.94
2023-11-06T04:25:39.249Z,98991.00
2023-11-06T04:28:06.757Z,98997.06
2023-11-06T04:30:33.605Z,98995.34
2023-11-06T04:33:00.396Z,99009.97
2023-11-06T04:35:28.267Z,98996.22
2023-11-06T04:37:54.892Z,99007.50
2023-11-06T04:40:21.402Z,99011.00
2023-11-06T04:42:48.617Z,99023.06
2023-11-06T04:45:15.165Z,99022.97
2023-11-06T04:47:41.812Z,99028.97
2023-11-06T04:50:08.950Z,99036.78
2023-11-06T04:52:35.458Z,99047.16
2023-11-06T04:55:02.001Z,99048.00
2023-11-06T04:57:28.494Z,99057.50
2023-11-06T04:59:55.055Z,99064.50
2023-11-06T05:02:21.531Z,99067.19
2023-11-06T05:04:48.215Z,99062.88
2023-11-06T05:07:15.207Z,99072.38
2023-11-06T05:09:43.717Z,99075.06
2023-11-06T05:12:11.308Z,99082.00
2023-11-06T05:14:38.074Z,99092.41
2023-11-06T05:17:06.312Z,99076.91
2023-11-06T05:19:38.460Z,99075.22
2023-11-06T05:22:05.228Z,99070.91
2023-11-06T05:24:31.762Z,99086.47
2023-11-06T05:26:59.027Z,99094.22
2023-11-06T05:29:25.621Z,99103.78
2023-11-06T05:31:52.232Z,99106.38
2023-11-06T05:34:18.826Z,99121.88
2023-11-06T05:36:45.686Z,99118.38
2023-11-06T05:39:12.691Z,99124.41
2023-11-06T05:41:39.708Z,99127.88
2023-11-06T05:44:06.319Z,99125.34
2023-11-06T05:46:32.844Z,99128.75
2023-11-06T05:48:59.535Z,99137.34
2023-11-06T05:51:26.954Z,99144.25
2023-11-06T05:53:53.644Z,99147.72
2023-11-06T05:56:20.212Z,99150.31
2023-11-06T05:58:46.973Z,99150.28
2023-11-06T06:01:14.005Z,99146.88
2023-11-06T06:03:41.212Z,99148.63
2023-11-06T06:06:08.260Z,99159.03
2023-11-06T06:08:34.819Z,99157.34
2023-11-06T06:11:01.424Z,99165.88
2023-11-06T06:13:28.028Z,99171.91
2023-11-06T06:15:54.570Z,99178.78
2023-11-06T06:18:21.217Z,99177.84
2023-11-06T06:20:47.848Z,99186.50
2023-11-06T06:23:14.442Z,99183.03
2023-11-06T06:25:44.481Z,99181.38
2023-11-06T06:28:11.017Z,99189.13
2023-11-06T06:30:37.543Z,99184.75
2023-11-06T06:33:06.430Z,99196.81
2023-11-06T06:35:32.975Z,99189.13
2023-11-06T06:37:59.545Z,99196.16
2023-11-06T06:40:27.396Z,99195.28
2023-11-06T06:42:53.893Z,99200.50
2023-11-06T06:45:20.459Z,99202.22
2023-11-06T06:47:47.011Z,99208.28
2023-11-06T06:50:13.688Z,99218.69
2023-11-06T06:52:40.207Z,99221.34
2023-11-06T06:55:07.279Z,99229.22
2023-11-06T06:57:33.702Z,99231.91
2023-11-06T07:00:00.288Z,99231.97
2023-11-06T07:02:27.060Z,99237.22
2023-11-06T07:04:53.672Z,99244.22
2023-11-06T07:07:20.149Z,99246.00
2023-11-06T07:09:46.678Z,99253.03
2023-11-06T07:12:15.226Z,99266.97
2023-11-06T07:14:41.849Z,99270.53
2023-11-06T07:17:08.484Z,99274.06
2023-11-06T07:19:35.088Z,99283.69
2023-11-06T07:22:02.867Z,99283.88
2023-11-06T07:24:29.677Z,99288.31
2023-11-06T07:26:57.589Z,99299.59
2023-11-06T07:29:24.945Z,99299.69
2023-11-06T07:31:51.968Z,99316.28
2023-11-06T07:34:22.856Z,99312.91
2023-11-06T07:36:50.082Z,99323.34
2023-11-06T07:39:16.823Z,99325.19
2023-11-06T07:41:43.999Z,99333.03
2023-11-06T07:44:10.825Z,99333.09
2023-11-06T07:46:37.596Z,99334.94
2023-11-06T07:49:04.566Z,99329.84
2023-11-06T07:51:31.326Z,99335.03
2023-11-06T07:53:57.940Z,99333.38
2023-11-06T07:56:24.438Z,99341.28
2023-11-06T07:58:50.920Z,99337.00
2023-11-06T08:01:19.966Z,99346.56
2023-11-06T08:03:46.725Z,99360.47
2023-11-06T08:06:13.822Z,99365.72
2023-11-06T08:08:42.285Z,99368.28
2023-11-06T08:11:09.417Z,99379.59
2023-11-06T08:13:36.313Z,99379.59
2023-11-06T08:16:05.779Z,99380.50
2023-11-06T08:18:34.242Z,99388.31
2023-11-06T08:21:01.304Z,99385.72
2023-11-06T08:23:32.102Z,99386.53
2023-11-06T08:25:58.778Z,99385.72
2023-11-06T08:28:25.556Z,99384.88
2023-11-06T08:30:52.540Z,99388.38
2023-11-06T08:33:19.667Z,99398.75
2023-11-06T08:35:47.122Z,99398.72
2023-11-06T08:38:14.885Z,99402.19
2023-11-06T08:40:41.556Z,99397.88
2023-11-06T08:43:08.765Z,99407.47
2023-11-06T08:45:35.334Z,99410.88
2023-11-06T08:48:01.978Z,99410.81
2023-11-06T08:50:30.746Z,99412.56
2023-11-06T08:52:58.133Z,99409.13
2023-11-06T08:55:25.696Z,99419.56
2023-11-06T08:57:52.468Z,99424.75
2023-11-06T09:00:20.253Z,99418.72
2023-11-06T09:02:48.425Z,99422.19
2023-11-06T09:05:16.509Z,99434.34
2023-11-06T09:07:43.118Z,99432.59
2023-11-06T09:10:11.152Z,99441.28
2023-11-06T09:12:40.451Z,99454.31
2023-11-06T09:15:07.809Z,99457.78
2023-11-06T09:17:34.311Z,99469.91
2023-11-06T09:20:01.014Z,99474.19
2023-11-06T09:22:27.795Z,99478.56
2023-11-06T09:24:54.350Z,99492.41
2023-11-06T09:27:20.962Z,99485.53
2023-11-06T09:29:47.795Z,99491.63
2023-11-06T09:32:14.860Z,99487.31
2023-11-06T09:34:41.577Z,99483.84
2023-11-06T09:37:08.107Z,99482.97
2023-11-06T09:39:35.451Z,99485.63
2023-11-06T09:42:03.256Z,99495.16
2023-11-06T09:44:29.924Z,99496.91
2023-11-06T09:46:57.596Z,99501.25
2023-11-06T09:49:28.309Z,99499.53
2023-11-06T09:51:55.514Z,99498.66
2023-11-06T09:54:23.176Z,99507.34
2023-11-06T09:56:50.043Z,99509.06
2023-11-06T09:59:18.801Z,99510.84
2023-11-06T10:01:45.561Z,99507.38
2023-11-06T10:04:12.157Z,99509.94
2023-11-06T10:06:39.216Z,99506.50
2023-11-06T10:09:23.086Z,99509.13
2023-11-06T10:11:50.137Z,99506.53
2023-11-06T10:14:16.842Z,99506.53
2023-11-06T10:16:43.857Z,99517.81
2023-11-06T10:19:15.413Z,99508.25
2023-11-06T10:21:42.236Z,99508.25
2023-11-06T10:24:10.369Z,99506.53
2023-11-06T10:26:37.199Z,99511.75
2023-11-06T10:29:10.828Z,99514.34
2023-11-06T10:31:49.486Z,99509.13
2023-11-06T10:34:29.994Z,99519.53
2023-11-06T10:37:15.098Z,99510.00
2023-11-06T10:39:51.807Z,99509.13
2023-11-06T10:42:21.055Z,99522.19
2023-11-06T10:44:56.410Z,99514.34
2023-11-06T10:47:35.101Z,99525.66
2023-11-06T10:50:11.172Z,99533.47
2023-11-06T10:52:42.123Z,99531.75
2023-11-06T10:55:18.536Z,99523.06
2023-11-06T10:57:54.825Z,99528.25
2023-11-06T11:00:22.612Z,99528.25
2023-11-06T11:02:53.016Z,99523.91
2023-11-06T11:05:25.137Z,99527.38
2023-11-06T11:07:54.880Z,99523.91
2023-11-06T11:10:28.037Z,99531.72
2023-11-06T11:12:57.297Z,99534.31
2023-11-06T11:15:25.845Z,99529.09
2023-11-06T11:18:14.506Z,99529.97
2023-11-06T11:21:01.810Z,99531.69
2023-11-06T11:23:45.189Z,99535.19
2023-11-06T11:26:15.563Z,99529.06
2023-11-06T11:29:10.725Z,99523.84
2023-11-06T11:31:45.392Z,99524.72
2023-11-06T11:34:30.243Z,99526.47
2023-11-06T11:36:57.145Z,99521.25
2023-11-06T11:39:23.798Z,99516.03
2023-11-06T11:42:06.187Z,99513.44
2023-11-06T11:44:33.513Z,99516.91
2023-11-06T11:47:02.827Z,99521.25
2023-11-06T11:49:40.702Z,99521.25
2023-11-06T11:52:09.459Z,99522.09
2023-11-06T11:54:38.547Z,99523.00
2023-11-06T11:57:07.092Z,99522.97
2023-11-06T11:59:51.780Z,99524.72
2023-11-06T12:02:29.906Z,99519.50
2023-11-06T12:05:01.916Z,99527.31
2023-11-06T12:07:41.553Z,99527.31
2023-11-06T12:10:08.594Z,99526.47
2023-11-06T12:12:35.073Z,99526.47
2023-11-06T12:15:03.374Z,99521.25
2023-11-06T12:17:32.525Z,99520.38
2023-11-06T12:20:03.057Z,99527.31
2023-11-06T12:22:32.412Z,99523.84
2023-11-06T12:24:59.530Z,99524.72
2023-11-06T12:27:36.530Z,99526.47
2023-11-06T12:30:12.779Z,99529.94
2023-11-06T12:32:39.670Z,99536.88
2023-11-06T12:35:15.763Z,99528.22
2023-11-06T12:37:51.625Z,99537.78
2023-11-06T12:40:20.276Z,99529.09
2023-11-06T12:42:49.962Z,99534.28
2023-11-06T12:45:33.122Z,99528.22
2023-11-06T12:48:01.530Z,99537.78
2023-11-06T12:50:31.032Z,99535.19
2023-11-06T12:52:57.747Z,99540.38
2023-11-06T12:55:24.417Z,99540.41
2023-11-06T12:57:51.960Z,99547.34
2023-11-06T13:00:29.332Z,99542.16
2023-11-06T13:02:56.071Z,99543.00
2023-11-06T13:05:22.622Z,99541.28
2023-11-06T13:07:52.917Z,99534.34
2023-11-06T13:10:21.229Z,99553.44
2023-11-06T13:12:48.759Z,99550.81
2023-11-06T13:15:16.348Z,99540.41
2023-11-06T13:17:46.412Z,99543.03
2023-11-06T13:20:34.044Z,99543.00
2023-11-06T13:23:00.655Z,99541.25
2023-11-06T13:25:28.388Z,99545.63
2023-11-06T13:27:57.811Z,99542.13
2023-11-06T13:30:25.267Z,99545.63
2023-11-06T13:32:52.242Z,99547.34
2023-11-06T13:35:19.591Z,99549.97
2023-11-06T13:37:49.670Z,99548.22
2023-11-06T13:40:30.015Z,99555.16
2023-11-06T13:42:57.171Z,99553.44
2023-11-06T13:45:23.716Z,99550.81
2023-11-06T13:47:54.994Z,99557.78
2023-11-06T13:50:46.801Z,99548.22
2023-11-06T13:53:24.421Z,99560.41
2023-11-06T13:56:38.231Z,99561.25
2023-11-06T13:59:09.724Z,99561.22
2023-11-06T14:01:48.299Z,99568.16
2023-11-06T14:04:18.278Z,99562.94
2023-11-06T14:06:47.425Z,99564.69
2023-11-06T14:09:32.505Z,99561.22
2023-11-06T14:11:58.988Z,99568.16
2023-11-06T14:14:25.572Z,99572.50
2023-11-06T14:16:56.754Z,99578.56
2023-11-06T14:19:25.936Z,99576.84
2023-11-06T14:21:52.454Z,99574.22
2023-11-06T14:24:20.770Z,99580.28
2023-11-06T14:26:47.329Z,99580.28
2023-11-06T14:29:14.031Z,99578.56
2023-11-06T14:31:40.983Z,99570.72
2023-11-06T14:34:07.464Z,99569.00
2023-11-06T14:36:33.987Z,99575.06
2023-11-06T14:39:00.751Z,99573.34
2023-11-06T14:41:27.580Z,99575.91
2023-11-06T14:43:55.540Z,99576.78
2023-11-06T14:46:24.139Z,99577.66
2023-11-06T14:48:56.317Z,99578.47
2023-11-06T14:51:29.685Z,99582.81
2023-11-06T14:53:56.642Z,99581.06
2023-11-06T14:56:23.237Z,99574.94
2023-11-06T14:58:49.736Z,99578.41
2023-11-06T15:01:16.274Z,99568.81
2023-11-06T15:03:43.093Z,99575.75
2023-11-06T15:06:09.785Z,99580.06
2023-11-06T15:08:39.334Z,99579.13
2023-11-06T15:11:06.135Z,99580.78
2023-11-06T15:13:33.778Z,99576.41
2023-11-06T15:16:01.659Z,99580.66
2023-11-06T15:18:28.888Z,99584.91
2023-11-06T15:20:56.674Z,99588.31
2023-11-06T15:23:24.868Z,99594.38
2023-11-06T15:25:51.389Z,99595.13
2023-11-06T15:28:17.905Z,99598.56
2023-11-06T15:30:44.413Z,99592.44
2023-11-06T15:33:11.129Z,99603.59
2023-11-06T15:35:38.033Z,99594.84
2023-11-06T15:38:04.690Z,99600.78
2023-11-06T15:40:31.394Z,99603.34
2023-11-06T15:42:57.906Z,99608.41
2023-11-06T15:45:25.301Z,99603.06
2023-11-06T15:47:53.068Z,99615.03
2023-11-06T15:50:20.716Z,99621.00
2023-11-06T15:52:47.915Z,99621.81
2023-11-06T15:55:15.298Z,99627.78
2023-11-06T15:57:41.926Z,99626.84
2023-11-06T16:00:09.276Z,99634.56
2023-11-06T16:02:36.128Z,99641.44
2023-11-06T16:05:02.738Z,99636.97
2023-11-06T16:07:29.275Z,99648.06
2023-11-06T16:09:55.793Z,99656.56
2023-11-06T16:12:22.321Z,99653.81
2023-11-06T16:14:48.922Z,99657.06
2023-11-06T16:17:15.877Z,99656.81
2023-11-06T16:19:42.516Z,99664.47
2023-11-06T16:22:10.409Z,99659.97
2023-11-06T16:24:37.274Z,99663.28
2023-11-06T16:27:03.872Z,99660.50
2023-11-06T16:29:32.848Z,99666.50
2023-11-06T16:32:02.030Z,99668.84
2023-11-06T16:34:39.283Z,99671.34
2023-11-06T16:37:13.254Z,99662.44
2023-11-06T16:39:42.869Z,99675.28
2023-11-06T16:42:10.933Z,99669.13
2023-11-06T16:44:38.243Z,99679.16
2023-11-06T16:47:05.136Z,99682.63
2023-11-06T16:49:31.596Z,99674.00
2023-11-06T16:51:58.157Z,99692.81
2023-11-06T16:54:27.276Z,99681.47
2023-11-06T16:56:55.300Z,99688.44
2023-11-06T16:59:23.379Z,99680.59
2023-11-06T17:01:50.422Z,99692.41
2023-11-06T17:04:17.083Z,99693.31
2023-11-06T17:06:44.452Z,99694.00
2023-11-06T17:09:14.957Z,99688.00
2023-11-06T17:11:42.185Z,99684.41
2023-11-06T17:14:08.709Z,99696.31
2023-11-06T17:16:35.301Z,99698.78
2023-11-06T17:19:01.999Z,99691.88
2023-11-06T17:21:28.862Z,99698.69
2023-11-06T17:23:55.576Z,99699.81
2023-11-06T17:26:22.448Z,99697.38
2023-11-06T17:28:50.765Z,99700.94
2023-11-06T17:31:18.244Z,99699.25
2023-11-06T17:33:50.239Z,99701.88
2023-11-06T17:36:17.057Z,99706.13
2023-11-06T17:38:43.777Z,99707.81
2023-11-06T17:41:10.392Z,99715.56
2023-11-06T17:43:37.245Z,99718.00
2023-11-06T17:46:06.516Z,99712.66
2023-11-06T17:48:33.652Z,99721.88
2023-11-06T17:51:00.704Z,99717.97
2023-11-06T17:53:27.213Z,99726.84
2023-11-06T17:55:54.450Z,99729.34
2023-11-06T17:58:20.926Z,99735.19
2023-11-06T18:00:47.697Z,99730.91
2023-11-06T18:03:15.245Z,99736.84
2023-11-06T18:05:41.923Z,99731.44
2023-11-06T18:08:08.447Z,99734.03
2023-11-06T18:10:34.937Z,99733.22
2023-11-06T18:13:01.466Z,99734.13
2023-11-06T18:15:28.956Z,99741.75
2023-11-06T18:17:55.810Z,99742.56
2023-11-06T18:20:22.763Z,99745.09
2023-11-06T18:22:49.391Z,99739.91
2023-11-06T18:25:18.395Z,99749.38
2023-11-06T18:27:45.043Z,99751.91
2023-11-06T18:30:12.233Z,99746.63
2023-11-06T18:32:38.762Z,99753.25
2023-11-06T18:35:05.803Z,99752.31
2023-11-06T18:37:33.055Z,99754.13
2023-11-06T18:40:02.225Z,99758.38
2023-11-06T18:42:29.164Z,99753.91
2023-11-06T18:44:55.917Z,99759.78
2023-11-06T18:47:24.815Z,99760.31
2023-11-06T18:49:52.639Z,99771.03
2023-11-06T18:52:19.934Z,99769.44
2023-11-06T18:54:46.949Z,99778.97
2023-11-06T18:57:17.287Z,99778.84
2023-11-06T18:59:47.104Z,99779.69
2023-11-06T19:02:14.394Z,99777.06
2023-11-06T19:04:42.159Z,99777.88
2023-11-06T19:07:09.266Z,99778.72
2023-11-06T19:09:36.149Z,99780.44
2023-11-06T19:12:02.806Z,99788.94
2023-11-06T19:14:30.078Z,99792.31
2023-11-06T19:16:59.839Z,99789.53
2023-11-06T19:19:26.344Z,99780.75
2023-11-06T19:21:52.887Z,99789.75
2023-11-06T19:24:22.651Z,99798.91
2023-11-06T19:26:50.548Z,99794.06
2023-11-06T19:29:19.572Z,99796.34
2023-11-06T19:31:46.526Z,99802.16
2023-11-06T19:34:14.096Z,99806.22
2023-11-06T19:36:40.887Z,99800.34
2023-11-06T19:39:08.468Z,99801.66
2023-11-06T19:41:35.400Z,99798.09
2023-11-06T19:44:02.149Z,99795.91
2023-11-06T19:46:28.761Z,99807.56
2023-11-06T19:48:55.731Z,99805.94
2023-11-06T19:51:23.229Z,99807.72
2023-11-06T19:53:50.126Z,99809.56
2023-11-06T19:56:16.885Z,99804.41
2023-11-06T19:58:48.186Z,99808.41
2023-11-06T20:01:15.936Z,99809.16
2023-11-06T20:03:43.480Z,99808.41
2023-11-06T20:06:11.622Z,99806.69
2023-11-06T20:08:39.096Z,99809.22
2023-11-06T20:11:06.023Z,99804.31
2023-11-06T20:13:32.628Z,99802.41
2023-11-06T20:16:00.050Z,99810.72
2023-11-06T20:18:28.899Z,99810.19
2023-11-06T20:20:55.597Z,99805.81
2023-11-06T20:23:22.450Z,99812.00
2023-11-06T20:25:49.193Z,99811.28
2023-11-06T20:28:15.744Z,99805.28
2023-11-06T20:30:42.241Z,99804.66
2023-11-06T20:33:08.999Z,99802.16
2023-11-06T20:35:35.849Z,99802.44
2023-11-06T20:38:02.624Z,99798.22
2023-11-06T20:40:30.751Z,99803.25
2023-11-06T20:42:57.321Z,99794.69
2023-11-06T20:45:23.865Z,99793.75
2023-11-06T20:47:51.589Z,99791.09
2023-11-06T20:50:18.207Z,99793.81
2023-11-06T20:52:44.861Z,99794.59
2023-11-06T20:55:11.382Z,99795.19
2023-11-06T20:57:38.331Z,99800.53
2023-11-06T21:00:05.398Z,99797.34
2023-11-06T21:02:31.970Z,99809.53
2023-11-06T21:04:58.540Z,99805.28
2023-11-06T21:07:25.452Z,99804.50
2023-11-06T21:09:52.627Z,99807.88
2023-11-06T21:12:20.130Z,99806.16
2023-11-06T21:14:46.776Z,99809.53
2023-11-06T21:17:13.272Z,99807.00
2023-11-06T21:19:39.968Z,99806.00
2023-11-06T21:22:07.246Z,99812.06
2023-11-06T21:24:33.830Z,99814.00
2023-11-06T21:27:01.678Z,99806.16
2023-11-06T21:29:28.265Z,99809.00
2023-11-06T21:31:54.755Z,99815.31
2023-11-06T21:34:21.402Z,99810.66
2023-11-06T21:36:47.978Z,99812.75
2023-11-06T21:39:14.574Z,99817.91
2023-11-06T21:41:42.527Z,99810.19
2023-11-06T21:44:11.114Z,99808.09
2023-11-06T21:46:42.354Z,99806.38
2023-11-06T21:49:11.133Z,99804.16
2023-11-06T21:51:38.314Z,99801.44
2023-11-06T21:54:05.730Z,99808.09
2023-11-06T21:56:33.941Z,99800.22
2023-11-06T21:59:01.687Z,99804.50
2023-11-06T22:01:28.272Z,99799.97
2023-11-06T22:03:55.017Z,99805.31
2023-11-06T22:06:25.862Z,99808.72
2023-11-06T22:08:52.606Z,99813.75
2023-11-06T22:11:19.293Z,99811.13
2023-11-06T22:13:46.284Z,99818.06
2023-11-06T22:16:13.289Z,99815.47
2023-11-06T22:18:39.981Z,99808.47
2023-11-06T22:21:06.937Z,99811.75
2023-11-06T22:23:33.510Z,99809.25
2023-11-06T22:26:00.054Z,99830.00
2023-11-06T22:28:27.589Z,99832.28
2023-11-06T22:30:54.103Z,99835.72
2023-11-06T22:33:21.096Z,99833.94
2023-11-06T22:35:47.885Z,99823.56
2023-11-06T22:38:14.709Z,99823.16
2023-11-06T22:40:41.427Z,99821.28
2023-11-06T22:43:07.928Z,99825.97
2023-11-06T22:45:34.940Z,99830.84
2023-11-06T22:48:03.578Z,99826.53
2023-11-06T22:50:30.345Z,99837.63
2023-11-06T22:52:56.899Z,99829.38
2023-11-06T22:55:24.845Z,99827.69
2023-11-06T22:57:52.384Z,99835.41
2023-11-06T23:00:23.803Z,99842.44
2023-11-06T23:02:50.977Z,99840.84
2023-11-06T23:05:17.742Z,99837.97
2023-11-06T23:07:44.321Z,99833.66
2023-11-06T23:10:12.501Z,99837.97
2023-11-06T23:12:40.675Z,99844.16
2023-11-06T23:15:10.737Z,99849.41
2023-11-06T23:17:38.997Z,99873.53
2023-11-06T23:20:06.146Z,99859.91
2023-11-06T23:23:29.181Z,99864.16
2023-11-06T23:25:56.801Z,99861.22
2023-11-06T23:28:23.452Z,99877.53
2023-11-06T23:30:50.035Z,99883.78
2023-11-06T23:33:17.165Z,99872.59
2023-11-06T23:35:43.877Z,99883.06
2023-11-06T23:38:10.428Z,99870.91
2023-11-06T23:40:37.130Z,99869.44
2023-11-06T23:43:04.105Z,99868.69
2023-11-06T23:45:30.813Z,99868.97
2023-11-06T23:47:57.478Z,99868.31
2023-11-06T23:50:24.153Z,99879.72
2023-11-06T23:52:51.602Z,99876.56
2023-11-06T23:55:19.846Z,99880.63
2023-11-06T23:57:46.618Z,99874.59
